createdAt,value
2022-11-06T00:01:08.106Z,7.57
2022-11-06T00:03:35.024Z,7.38
2022-11-06T00:06:12.655Z,6.97
2022-11-06T00:08:40.420Z,5.80
2022-11-06T00:11:15.311Z,4.13
2022-11-06T00:13:42.405Z,8.02
2022-11-06T00:16:11.882Z,9.18
2022-11-06T00:18:39.673Z,7.07
2022-11-06T00:21:27.864Z,21.88
2022-11-06T00:23:56.263Z,6.20
2022-11-06T00:26:25.107Z,7.72
2022-11-06T00:28:52.822Z,6.10
2022-11-06T00:31:27.248Z,7.05
2022-11-06T00:33:55.270Z,8.93
2022-11-06T00:36:23.277Z,6.20
2022-11-06T00:38:56.954Z,5.90
2022-11-06T00:41:24.986Z,5.22
2022-11-06T00:43:54.286Z,7.22
2022-11-06T00:46:20.945Z,7.55
2022-11-06T00:48:47.713Z,6.53
2022-11-06T00:51:22.070Z,6.40
2022-11-06T00:53:53.490Z,6.05
2022-11-06T00:56:20.471Z,7.13
2022-11-06T00:58:47.737Z,6.03
2022-11-06T01:01:29.163Z,8.17
2022-11-06T01:03:58.648Z,8.23
2022-11-06T01:06:28.459Z,6.75
2022-11-06T01:08:56.614Z,6.63
2022-11-06T01:14:19.705Z,6.55
2022-11-06T01:16:46.985Z,6.10
2022-11-06T01:19:15.348Z,4.63
2022-11-06T01:24:17.379Z,6.15
2022-11-06T01:27:04.922Z,10.57
2022-11-06T01:29:30.564Z,6.13
2022-11-06T01:31:57.241Z,5.88
2022-11-06T01:34:23.981Z,7.13
2022-11-06T01:36:50.594Z,6.25
2022-11-06T01:39:17.123Z,11.02
2022-11-06T01:41:47.773Z,7.20
2022-11-06T01:44:14.551Z,4.32
2022-11-06T01:46:41.026Z,13.45
2022-11-06T01:49:12.318Z,3.63
2022-11-06T01:52:01.566Z,4.60
2022-11-06T01:54:30.654Z,5.78
2022-11-06T01:56:59.680Z,7.38
2022-11-06T01:59:29.976Z,7.07
2022-11-06T02:01:56.933Z,5.38
2022-11-06T02:04:26.991Z,4.28
2022-11-06T02:06:53.731Z,6.22
2022-11-06T02:09:20.775Z,10.07
2022-11-06T02:12:05.984Z,5.07
2022-11-06T02:17:15.565Z,6.20
2022-11-06T02:20:03.200Z,6.10
2022-11-06T02:22:41.872Z,7.65
2022-11-06T02:25:14.206Z,6.68
2022-11-06T02:27:46.295Z,6.40
2022-11-06T02:30:15.820Z,6.05
2022-11-06T02:32:48.308Z,8.20
2022-11-06T02:35:28.866Z,7.13
2022-11-06T02:38:01.204Z,7.60
2022-11-06T02:40:32.860Z,5.75
2022-11-06T02:43:04.425Z,4.35
2022-11-06T02:45:37.209Z,6.45
2022-11-06T02:48:05.380Z,4.05
2022-11-06T02:50:35.487Z,5.43
2022-11-06T02:53:06.179Z,9.95
2022-11-06T02:55:39.516Z,5.05
2022-11-06T02:58:28.531Z,7.03
2022-11-06T03:01:03.220Z,10.07
2022-11-06T03:03:33.577Z,5.70
2022-11-06T03:06:12.452Z,9.75
2022-11-06T03:08:51.643Z,8.25
2022-11-06T03:11:33.469Z,8.23
2022-11-06T03:14:08.553Z,9.00
2022-11-06T03:16:51.278Z,9.98
2022-11-06T03:19:33.188Z,9.43
2022-11-06T03:22:09.596Z,3.97
2022-11-06T03:24:49.896Z,4.53
2022-11-06T03:27:42.039Z,8.30
2022-11-06T03:30:16.307Z,5.40
2022-11-06T03:32:53.416Z,9.07
2022-11-06T03:35:26.563Z,4.25
2022-11-06T03:38:07.684Z,4.05
2022-11-06T03:40:40.116Z,3.80
2022-11-06T03:43:09.877Z,5.57
2022-11-06T03:45:40.065Z,2.70
2022-11-06T03:48:15.002Z,3.95
2022-11-06T03:51:00.271Z,3.50
2022-11-06T03:53:31.329Z,4.05
2022-11-06T03:56:06.028Z,2.35
2022-11-06T03:58:38.484Z,3.40
2022-11-06T04:01:09.105Z,8.32
2022-11-06T04:03:37.893Z,3.50
2022-11-06T04:06:17.509Z,3.63
2022-11-06T04:08:46.868Z,2.88
2022-11-06T04:11:18.281Z,2.88
2022-11-06T04:13:46.469Z,4.78
2022-11-06T04:18:40.475Z,2.95
2022-11-06T04:21:13.081Z,2.67
2022-11-06T04:24:02.501Z,2.40
2022-11-06T04:26:34.558Z,2.78
2022-11-06T04:29:18.169Z,2.35
2022-11-06T04:32:17.646Z,3.28
2022-11-06T04:35:08.620Z,2.67
2022-11-06T04:37:50.002Z,3.00
2022-11-06T04:40:30.959Z,3.00
2022-11-06T04:43:14.531Z,3.35
2022-11-06T04:45:45.880Z,2.45
2022-11-06T04:48:13.808Z,5.70
2022-11-06T04:50:47.606Z,2.17
2022-11-06T04:53:16.469Z,2.80
2022-11-06T04:55:52.683Z,2.47
2022-11-06T04:58:19.805Z,2.53
2022-11-06T05:00:48.680Z,3.30
2022-11-06T05:03:16.115Z,3.72
2022-11-06T05:05:43.304Z,3.63
2022-11-06T05:08:15.816Z,2.43
2022-11-06T05:10:43.515Z,4.03
2022-11-06T05:13:10.704Z,2.83
2022-11-06T05:15:37.411Z,1.40
2022-11-06T05:18:04.545Z,3.30
2022-11-06T05:20:32.144Z,2.78
2022-11-06T05:22:58.852Z,3.00
2022-11-06T05:25:43.758Z,1.98
2022-11-06T05:28:10.401Z,2.75
2022-11-06T05:30:37.347Z,2.67
2022-11-06T05:33:04.377Z,3.38
2022-11-06T05:35:30.972Z,3.13
2022-11-06T05:38:02.079Z,3.20
2022-11-06T05:40:28.998Z,3.92
2022-11-06T05:42:55.747Z,7.15
2022-11-06T05:45:22.277Z,8.82
2022-11-06T05:47:49.033Z,5.15
2022-11-06T05:50:15.851Z,13.05
2022-11-06T05:52:42.426Z,10.98
2022-11-06T05:55:14.473Z,5.80
2022-11-06T05:57:42.324Z,20.80
2022-11-06T06:00:11.405Z,19.08
2022-11-06T06:02:42.715Z,18.00
2022-11-06T06:05:10.404Z,6.97
2022-11-06T06:07:37.052Z,6.85
2022-11-06T06:10:04.121Z,5.63
2022-11-06T06:12:30.677Z,10.90
2022-11-06T06:14:57.233Z,9.30
2022-11-06T06:17:23.816Z,26.80
2022-11-06T06:19:50.394Z,14.10
2022-11-06T06:22:17.181Z,14.15
2022-11-06T06:24:44.012Z,9.10
2022-11-06T06:27:10.674Z,21.40
2022-11-06T06:29:37.301Z,17.95
2022-11-06T06:32:04.065Z,17.42
2022-11-06T06:34:30.578Z,11.20
2022-11-06T06:36:57.135Z,45.00
2022-11-06T06:39:23.742Z,19.65
2022-11-06T06:41:50.189Z,18.77
2022-11-06T06:44:16.720Z,26.08
2022-11-06T06:46:43.438Z,35.50
2022-11-06T06:49:10.074Z,25.55
2022-11-06T06:51:36.842Z,28.05
2022-11-06T06:54:03.565Z,10.50
2022-11-06T06:56:30.045Z,28.08
2022-11-06T06:58:56.704Z,42.00
2022-11-06T07:01:23.432Z,39.80
2022-11-06T07:03:50.105Z,49.03
2022-11-06T07:06:18.921Z,15.68
2022-11-06T07:08:45.565Z,5.55
2022-11-06T07:11:12.170Z,5.13
2022-11-06T07:13:38.909Z,5.60
2022-11-06T07:16:07.733Z,8.40
2022-11-06T07:18:35.666Z,6.65
2022-11-06T07:21:05.313Z,7.28
2022-11-06T07:23:31.979Z,7.43
2022-11-06T07:25:58.487Z,8.57
2022-11-06T07:28:24.981Z,9.50
2022-11-06T07:30:51.654Z,8.57
2022-11-06T07:33:18.202Z,9.90
2022-11-06T07:35:44.786Z,8.88
2022-11-06T07:38:11.479Z,7.82
2022-11-06T07:40:38.270Z,8.30
2022-11-06T07:43:09.333Z,7.75
2022-11-06T07:45:36.643Z,8.52
2022-11-06T07:48:03.809Z,10.10
2022-11-06T07:50:30.800Z,7.82
2022-11-06T07:52:57.280Z,9.35
2022-11-06T07:55:23.945Z,8.55
2022-11-06T07:57:50.425Z,5.97
2022-11-06T08:00:17.046Z,7.32
2022-11-06T08:02:44.712Z,6.65
2022-11-06T08:05:11.276Z,10.25
2022-11-06T08:07:37.816Z,6.40
2022-11-06T08:10:04.817Z,9.27
2022-11-06T08:12:31.354Z,7.47
2022-11-06T08:14:57.782Z,7.47
2022-11-06T08:17:24.234Z,7.70
2022-11-06T08:19:50.799Z,7.53
2022-11-06T08:22:17.251Z,6.75
2022-11-06T08:24:43.728Z,8.25
2022-11-06T08:27:10.622Z,9.23
2022-11-06T08:29:41.374Z,7.72
2022-11-06T08:32:08.593Z,6.55
2022-11-06T08:34:35.539Z,7.53
2022-11-06T08:37:02.080Z,7.70
2022-11-06T08:39:28.739Z,9.43
2022-11-06T08:41:55.243Z,9.93
2022-11-06T08:44:23.627Z,10.13
2022-11-06T08:46:52.122Z,10.50
2022-11-06T08:49:19.472Z,10.27
2022-11-06T08:51:45.949Z,10.15
2022-11-06T08:54:12.718Z,10.10
2022-11-06T08:56:39.497Z,11.02
2022-11-06T08:59:06.176Z,9.70
2022-11-06T09:01:32.834Z,12.85
2022-11-06T09:03:59.486Z,10.95
2022-11-06T09:06:26.041Z,8.63
2022-11-06T09:08:52.549Z,9.68
2022-11-06T09:11:19.219Z,8.48
2022-11-06T09:13:45.712Z,7.45
2022-11-06T09:16:15.816Z,9.05
2022-11-06T09:18:43.539Z,12.18
2022-11-06T09:21:10.344Z,7.93
2022-11-06T09:23:36.994Z,9.40
2022-11-06T09:26:03.819Z,9.35
2022-11-06T09:28:30.462Z,16.98
2022-11-06T09:30:56.941Z,14.40
2022-11-06T09:33:23.518Z,13.88
2022-11-06T09:35:50.261Z,9.30
2022-11-06T09:38:16.823Z,9.77
2022-11-06T09:40:55.400Z,10.40
2022-11-06T09:43:43.485Z,10.13
2022-11-06T09:46:28.821Z,14.73
2022-11-06T09:49:05.019Z,15.15
2022-11-06T09:51:33.501Z,17.45
2022-11-06T09:54:06.372Z,10.32
2022-11-06T09:56:38.364Z,10.40
2022-11-06T09:59:10.377Z,11.00
2022-11-06T10:01:58.112Z,9.88
2022-11-06T10:07:24.760Z,10.65
2022-11-06T10:09:51.412Z,8.85
2022-11-06T10:12:35.536Z,8.85
2022-11-06T10:15:18.296Z,10.65
2022-11-06T10:18:12.590Z,10.65
2022-11-06T10:20:45.361Z,9.48
2022-11-06T10:23:19.651Z,9.73
2022-11-06T10:26:15.317Z,10.95
2022-11-06T10:29:01.462Z,8.65
2022-11-06T10:31:34.579Z,11.80
2022-11-06T10:34:04.347Z,10.45
2022-11-06T10:36:51.624Z,11.57
2022-11-06T10:39:26.599Z,7.30
2022-11-06T10:42:00.525Z,9.55
2022-11-06T10:44:55.316Z,7.68
2022-11-06T10:47:24.050Z,7.53
2022-11-06T10:49:57.037Z,6.13
2022-11-06T10:52:53.015Z,7.13
2022-11-06T10:55:41.569Z,8.05
2022-11-06T10:58:20.936Z,5.45
2022-11-06T11:00:47.400Z,5.35
2022-11-06T11:03:25.661Z,16.92
2022-11-06T11:05:52.172Z,6.70
2022-11-06T11:08:31.124Z,6.80
2022-11-06T11:11:14.418Z,7.20
2022-11-06T11:13:42.149Z,5.75
2022-11-06T11:16:17.697Z,6.25
2022-11-06T11:18:48.532Z,3.92
2022-11-06T11:21:27.281Z,4.78
2022-11-06T11:24:09.241Z,4.50
2022-11-06T11:26:56.808Z,5.35
2022-11-06T11:29:27.164Z,4.13
2022-11-06T11:31:57.584Z,5.32
2022-11-06T11:34:29.961Z,3.88
2022-11-06T11:37:02.074Z,4.90
2022-11-06T11:39:32.080Z,3.72
2022-11-06T11:42:26.222Z,3.25
2022-11-06T11:45:14.096Z,4.38
2022-11-06T11:50:17.494Z,2.75
2022-11-06T11:52:46.970Z,3.33
2022-11-06T11:55:22.867Z,3.60
2022-11-06T11:57:53.185Z,3.88
2022-11-06T12:00:22.046Z,3.65
2022-11-06T12:02:53.097Z,3.85
2022-11-06T12:05:24.933Z,3.03
2022-11-06T12:07:56.352Z,3.83
2022-11-06T12:10:38.143Z,2.90
2022-11-06T12:13:16.526Z,2.75
2022-11-06T12:15:54.101Z,4.78
2022-11-06T12:18:34.649Z,2.88
2022-11-06T12:21:06.166Z,2.97
2022-11-06T12:23:55.799Z,2.58
2022-11-06T12:26:37.293Z,2.17
2022-11-06T12:29:19.580Z,3.75
2022-11-06T12:31:57.956Z,2.17
2022-11-06T12:34:38.219Z,2.25
2022-11-06T12:37:10.437Z,1.88
2022-11-06T12:39:39.165Z,2.03
2022-11-06T12:42:07.225Z,2.08
2022-11-06T12:44:33.723Z,2.47
2022-11-06T12:51:01.263Z,2.58
2022-11-06T12:53:44.692Z,2.30
2022-11-06T12:56:21.894Z,3.13
2022-11-06T12:59:05.197Z,3.47
2022-11-06T13:01:54.750Z,1.80
2022-11-06T13:04:30.475Z,2.58
2022-11-06T13:07:14.855Z,2.65
2022-11-06T13:09:50.068Z,1.88
2022-11-06T13:12:39.895Z,2.70
2022-11-06T13:15:32.935Z,2.33
2022-11-06T13:18:15.500Z,1.85
2022-11-06T13:21:01.959Z,1.92
2022-11-06T13:23:33.685Z,3.03
2022-11-06T13:26:13.537Z,3.40
2022-11-06T13:28:46.857Z,2.92
2022-11-06T13:31:16.568Z,3.20
2022-11-06T13:33:48.988Z,3.15
2022-11-06T13:36:17.611Z,2.22
2022-11-06T13:38:55.711Z,2.25
2022-11-06T13:44:01.858Z,2.25
2022-11-06T13:47:04.175Z,2.15
2022-11-06T13:49:49.278Z,2.53
2022-11-06T13:52:23.914Z,2.88
2022-11-06T13:55:23.079Z,3.45
2022-11-06T13:58:14.586Z,1.75
2022-11-06T14:01:02.490Z,4.70
2022-11-06T14:03:41.957Z,5.25
2022-11-06T14:06:16.939Z,5.15
2022-11-06T14:08:48.048Z,7.32
2022-11-06T14:11:28.083Z,4.70
2022-11-06T14:14:23.849Z,3.83
2022-11-06T14:17:11.753Z,2.40
2022-11-06T14:22:26.807Z,2.55
2022-11-06T14:24:59.977Z,2.70
2022-11-06T14:27:27.885Z,4.03
2022-11-06T14:30:00.305Z,2.88
2022-11-06T14:32:36.809Z,4.82
2022-11-06T14:35:28.173Z,2.17
2022-11-06T14:38:09.592Z,2.72
2022-11-06T14:40:38.556Z,3.17
2022-11-06T14:43:24.210Z,1.75
2022-11-06T14:46:16.399Z,2.22
2022-11-06T14:48:45.202Z,2.97
2022-11-06T14:51:13.490Z,2.55
2022-11-06T14:53:54.550Z,3.30
2022-11-06T14:56:30.617Z,2.55
2022-11-06T14:59:04.204Z,2.20
2022-11-06T15:01:34.063Z,2.13
2022-11-06T15:04:05.381Z,2.25
2022-11-06T15:06:31.799Z,2.50
2022-11-06T15:09:34.707Z,3.42
2022-11-06T15:12:10.238Z,3.45
2022-11-06T15:14:36.840Z,3.92
2022-11-06T15:17:10.934Z,2.83
2022-11-06T15:20:19.061Z,4.40
2022-11-06T15:22:59.545Z,2.38
2022-11-06T15:25:28.045Z,4.43
2022-11-06T15:28:13.257Z,12.25
2022-11-06T15:31:15.221Z,6.63
2022-11-06T15:33:56.792Z,4.88
2022-11-06T15:36:24.346Z,5.00
2022-11-06T15:38:51.020Z,4.32
2022-11-06T15:41:26.432Z,3.55
2022-11-06T15:43:54.941Z,2.72
2022-11-06T15:46:25.711Z,2.72
2022-11-06T15:49:18.374Z,2.72
2022-11-06T15:51:59.433Z,3.95
2022-11-06T15:54:48.810Z,3.45
2022-11-06T15:57:24.925Z,1.90
2022-11-06T16:00:07.495Z,2.22
2022-11-06T16:02:53.405Z,2.00
2022-11-06T16:05:21.953Z,1.67
2022-11-06T16:07:48.892Z,2.25
2022-11-06T16:10:17.571Z,1.85
2022-11-06T16:12:45.334Z,1.67
2022-11-06T16:15:42.604Z,2.33
2022-11-06T16:18:24.166Z,3.50
2022-11-06T16:21:12.989Z,3.42
2022-11-06T16:23:52.903Z,5.38
2022-11-06T16:26:47.377Z,7.95
2022-11-06T16:29:16.751Z,11.43
2022-11-06T16:31:43.870Z,12.05
2022-11-06T16:34:30.792Z,15.65
2022-11-06T16:37:05.789Z,17.70
2022-11-06T16:39:51.681Z,12.00
2022-11-06T16:42:32.637Z,12.18
2022-11-06T16:45:08.162Z,5.85
2022-11-06T16:47:34.768Z,4.63
2022-11-06T16:50:01.407Z,6.30
2022-11-06T16:52:35.536Z,9.85
2022-11-06T16:55:04.359Z,7.28
2022-11-06T16:57:35.492Z,5.15
2022-11-06T17:00:07.108Z,6.28
2022-11-06T17:02:37.329Z,4.43
2022-11-06T17:05:21.434Z,4.32
2022-11-06T17:07:49.586Z,6.45
2022-11-06T17:10:35.247Z,5.03
2022-11-06T17:13:14.454Z,4.22
2022-11-06T17:15:42.233Z,8.57
2022-11-06T17:18:14.325Z,3.60
2022-11-06T17:20:44.152Z,4.32
2022-11-06T17:23:15.786Z,6.35
2022-11-06T17:25:43.607Z,5.30
2022-11-06T17:28:10.397Z,9.48
2022-11-06T17:30:37.288Z,11.68
2022-11-06T17:33:04.271Z,26.27
2022-11-06T17:35:30.813Z,31.50
2022-11-06T17:37:57.338Z,29.27
2022-11-06T17:40:23.784Z,22.20
2022-11-06T17:42:50.388Z,18.70
2022-11-06T17:45:16.898Z,18.20
2022-11-06T17:47:43.485Z,15.93
2022-11-06T17:50:10.045Z,12.52
2022-11-06T17:52:36.626Z,13.40
2022-11-06T17:55:03.638Z,11.38
2022-11-06T17:57:30.122Z,16.63
2022-11-06T17:59:56.659Z,17.60
2022-11-06T18:02:47.694Z,22.17
2022-11-06T18:05:10.065Z,15.38
2022-11-06T18:07:36.552Z,11.85
2022-11-06T18:10:03.192Z,8.02
2022-11-06T18:12:29.754Z,11.05
2022-11-06T18:14:56.209Z,6.47
2022-11-06T18:17:22.822Z,9.10
2022-11-06T18:19:49.331Z,5.28
2022-11-06T18:22:15.805Z,5.47
2022-11-06T18:24:42.298Z,5.70
2022-11-06T18:27:08.782Z,4.80
2022-11-06T18:29:35.249Z,6.78
2022-11-06T18:32:01.697Z,8.82
2022-11-06T18:34:28.193Z,6.80
2022-11-06T18:36:54.662Z,7.07
2022-11-06T18:39:21.288Z,6.93
2022-11-06T18:41:48.239Z,8.68
2022-11-06T18:44:16.393Z,5.68
2022-11-06T18:49:10.188Z,4.82
2022-11-06T18:51:36.831Z,8.02
2022-11-06T18:54:08.595Z,7.15
2022-11-06T18:56:35.810Z,6.55
2022-11-06T18:59:02.434Z,6.85
2022-11-06T19:01:29.062Z,6.63
2022-11-06T19:03:55.630Z,9.50
2022-11-06T19:06:22.241Z,4.60
2022-11-06T19:08:49.092Z,5.68
2022-11-06T19:11:17.287Z,3.92
2022-11-06T19:16:16.617Z,5.07
2022-11-06T19:18:43.326Z,4.95
2022-11-06T19:21:11.035Z,4.22
2022-11-06T19:23:39.832Z,18.40
2022-11-06T19:28:59.404Z,5.93
2022-11-06T19:31:25.959Z,5.47
2022-11-06T19:33:52.590Z,4.72
2022-11-06T19:36:19.042Z,3.00
2022-11-06T19:38:45.473Z,4.72
2022-11-06T19:41:11.949Z,4.35
2022-11-06T19:43:38.686Z,9.02
2022-11-06T19:46:06.369Z,3.75
2022-11-06T19:48:33.436Z,4.78
2022-11-06T19:51:00.644Z,3.70
2022-11-06T19:53:27.517Z,3.42
2022-11-06T19:55:54.032Z,3.97
2022-11-06T19:58:21.285Z,3.22
2022-11-06T20:00:47.849Z,3.53
2022-11-06T20:03:15.936Z,5.05
2022-11-06T20:05:43.164Z,2.92
2022-11-06T20:08:10.315Z,3.53
2022-11-06T20:10:37.084Z,3.40
2022-11-06T20:13:04.788Z,2.60
2022-11-06T20:15:31.898Z,3.00
2022-11-06T20:17:58.497Z,7.07
2022-11-06T20:20:25.661Z,18.20
2022-11-06T20:22:52.762Z,15.03
2022-11-06T20:25:19.300Z,11.10
2022-11-06T20:27:45.995Z,9.13
2022-11-06T20:30:13.245Z,5.38
2022-11-06T20:32:39.724Z,4.87
2022-11-06T20:35:06.987Z,8.05
2022-11-06T20:37:33.504Z,4.57
2022-11-06T20:40:00.100Z,4.45
2022-11-06T20:42:26.609Z,4.00
2022-11-06T20:44:53.209Z,4.95
2022-11-06T20:47:19.828Z,2.38
2022-11-06T20:49:46.305Z,1.98
2022-11-06T20:52:14.364Z,3.60
2022-11-06T20:54:46.659Z,1.65
2022-11-06T20:57:15.924Z,2.15
2022-11-06T20:59:42.666Z,2.25
2022-11-06T21:02:12.158Z,1.95
2022-11-06T21:04:38.843Z,2.20
2022-11-06T21:07:05.368Z,3.15
2022-11-06T21:09:31.916Z,2.05
2022-11-06T21:11:58.648Z,1.67
2022-11-06T21:14:25.587Z,3.33
2022-11-06T21:16:52.217Z,2.45
2022-11-06T21:19:19.576Z,1.58
2022-11-06T21:21:46.322Z,2.10
2022-11-06T21:24:12.962Z,1.40
2022-11-06T21:26:39.804Z,2.35
2022-11-06T21:29:09.165Z,2.47
2022-11-06T21:31:35.734Z,3.63
2022-11-06T21:34:04.181Z,2.10
2022-11-06T21:36:33.486Z,1.25
2022-11-06T21:39:02.891Z,1.17
2022-11-06T21:41:31.068Z,1.33
2022-11-06T21:43:57.599Z,1.77
2022-11-06T21:46:24.126Z,2.67
2022-11-06T21:48:51.862Z,1.30
2022-11-06T21:51:20.133Z,1.13
2022-11-06T21:53:47.638Z,1.33
2022-11-06T21:56:14.487Z,1.35
2022-11-06T21:58:41.097Z,3.13
2022-11-06T22:01:07.808Z,0.93
2022-11-06T22:03:35.298Z,2.30
2022-11-06T22:06:06.525Z,0.77
2022-11-06T22:08:39.015Z,1.38
2022-11-06T22:11:22.962Z,0.80
2022-11-06T22:13:51.251Z,1.90
2022-11-06T22:16:20.596Z,1.55
2022-11-06T22:18:47.735Z,0.95
2022-11-06T22:21:15.761Z,0.85
2022-11-06T22:23:43.142Z,2.03
2022-11-06T22:26:15.832Z,1.85
2022-11-06T22:28:42.960Z,0.93
2022-11-06T22:31:09.785Z,3.03
2022-11-06T22:33:37.031Z,1.35
2022-11-06T22:36:10.178Z,1.37
2022-11-06T22:38:37.873Z,1.33
2022-11-06T22:41:06.305Z,1.13
2022-11-06T22:43:34.360Z,4.05
2022-11-06T22:46:06.721Z,2.33
2022-11-06T22:48:33.801Z,1.88
2022-11-06T22:51:09.762Z,0.98
2022-11-06T22:53:36.328Z,1.70
2022-11-06T22:56:03.534Z,0.93
2022-11-06T22:58:30.519Z,0.68
2022-11-06T23:00:57.881Z,2.13
2022-11-06T23:03:26.797Z,3.33
2022-11-06T23:05:53.316Z,1.00
2022-11-06T23:08:19.833Z,0.73
2022-11-06T23:10:46.366Z,1.52
2022-11-06T23:13:13.187Z,1.65
2022-11-06T23:15:39.861Z,1.83
2022-11-06T23:18:06.520Z,1.38
2022-11-06T23:20:33.950Z,1.35
2022-11-06T23:23:02.056Z,1.45
2022-11-06T23:27:55.723Z,1.42
2022-11-06T23:30:22.332Z,2.03
2022-11-06T23:32:48.776Z,2.47
2022-11-06T23:35:17.002Z,1.30
2022-11-06T23:37:44.452Z,1.15
2022-11-06T23:40:11.817Z,0.90
2022-11-06T23:42:38.558Z,3.00
2022-11-06T23:45:05.624Z,1.17
2022-11-06T23:47:33.491Z,0.40
2022-11-06T23:50:00.062Z,1.13
2022-11-06T23:52:27.429Z,1.73
2022-11-06T23:54:54.669Z,0.40
2022-11-06T23:57:21.995Z,1.70
2022-11-06T23:59:48.631Z,1.13
